createdAt,value
2023-04-09T00:00:23.313Z,16.92
2023-04-09T00:02:52.645Z,18.65
2023-04-09T00:05:21.853Z,18.98
2023-04-09T00:07:51.204Z,18.45
2023-04-09T00:10:21.640Z,15.55
2023-04-09T00:12:52.188Z,18.10
2023-04-09T00:15:30.738Z,16.27
2023-04-09T00:18:01.243Z,15.85
2023-04-09T00:20:30.557Z,16.70
2023-04-09T00:23:00.055Z,17.20
2023-04-09T00:25:29.768Z,15.25
2023-04-09T00:28:00.247Z,16.17
2023-04-09T00:30:30.411Z,17.00
2023-04-09T00:32:59.349Z,17.55
2023-04-09T00:35:28.734Z,17.23
2023-04-09T00:37:58.209Z,18.00
2023-04-09T00:40:27.328Z,18.60
2023-04-09T00:42:57.051Z,19.33
2023-04-09T00:45:27.647Z,19.08
2023-04-09T00:47:56.891Z,18.65
2023-04-09T00:50:26.122Z,19.83
2023-04-09T00:52:55.293Z,19.20
2023-04-09T00:55:24.530Z,18.55
2023-04-09T00:57:53.586Z,17.38
2023-04-09T01:00:23.363Z,17.98
2023-04-09T01:02:54.017Z,18.77
2023-04-09T01:05:23.192Z,20.42
2023-04-09T01:07:57.411Z,17.23
2023-04-09T01:10:30.649Z,19.70
2023-04-09T01:13:05.907Z,20.48
2023-04-09T01:15:36.895Z,21.25
2023-04-09T01:18:13.533Z,18.95
2023-04-09T01:20:44.233Z,21.33
2023-04-09T01:23:18.383Z,17.45
2023-04-09T01:25:55.275Z,18.90
2023-04-09T01:28:27.912Z,21.20
2023-04-09T01:31:01.148Z,20.05
2023-04-09T01:33:31.242Z,20.48
2023-04-09T01:36:00.885Z,22.73
2023-04-09T01:38:30.097Z,21.17
2023-04-09T01:40:59.760Z,23.60
2023-04-09T01:43:30.681Z,22.27
2023-04-09T01:46:00.697Z,22.85
2023-04-09T01:48:30.990Z,24.25
2023-04-09T01:51:00.304Z,24.90
2023-04-09T01:53:31.108Z,21.05
2023-04-09T01:56:01.310Z,26.02
2023-04-09T01:58:34.138Z,24.27
2023-04-09T02:01:07.212Z,23.45
2023-04-09T02:03:40.061Z,23.98
2023-04-09T02:06:11.390Z,25.00
2023-04-09T02:08:40.968Z,26.77
2023-04-09T02:11:12.443Z,24.73
2023-04-09T02:13:43.168Z,25.10
2023-04-09T02:16:13.278Z,24.25
2023-04-09T02:18:43.587Z,27.77
2023-04-09T02:21:13.919Z,25.95
2023-04-09T02:23:43.642Z,28.50
2023-04-09T02:26:12.759Z,27.25
2023-04-09T02:28:43.414Z,26.60
2023-04-09T02:31:13.315Z,24.88
2023-04-09T02:33:43.952Z,26.43
2023-04-09T02:36:13.647Z,26.35
2023-04-09T02:38:42.965Z,30.08
2023-04-09T02:41:13.011Z,26.52
2023-04-09T02:43:47.511Z,26.77
2023-04-09T02:46:17.335Z,24.00
2023-04-09T02:48:47.548Z,25.33
2023-04-09T02:51:17.283Z,25.77
2023-04-09T02:53:49.554Z,26.33
2023-04-09T02:56:20.416Z,26.45
2023-04-09T02:58:54.257Z,26.80
2023-04-09T03:01:24.608Z,26.95
2023-04-09T03:03:54.535Z,28.58
2023-04-09T03:06:23.880Z,26.85
2023-04-09T03:08:53.458Z,26.85
2023-04-09T03:11:25.487Z,24.27
2023-04-09T03:13:59.301Z,28.13
2023-04-09T03:16:28.528Z,27.83
2023-04-09T03:18:58.092Z,23.60
2023-04-09T03:21:27.620Z,25.58
2023-04-09T03:23:56.710Z,23.23
2023-04-09T03:26:25.897Z,23.95
2023-04-09T03:28:55.326Z,25.15
2023-04-09T03:31:25.858Z,24.33
2023-04-09T03:33:55.094Z,23.85
2023-04-09T03:36:24.433Z,25.25
2023-04-09T03:39:00.559Z,22.67
2023-04-09T03:41:48.116Z,26.40
2023-04-09T03:44:19.059Z,24.30
2023-04-09T03:47:10.442Z,24.85
2023-04-09T03:49:40.743Z,27.45
2023-04-09T03:52:30.353Z,24.88
2023-04-09T03:55:05.666Z,24.92
2023-04-09T03:57:35.639Z,26.70
2023-04-09T04:00:06.241Z,26.85
2023-04-09T04:02:54.054Z,26.63
2023-04-09T04:05:43.275Z,28.48
2023-04-09T04:08:17.147Z,26.08
2023-04-09T04:10:46.450Z,25.63
2023-04-09T04:13:19.179Z,25.85
2023-04-09T04:15:55.186Z,27.85
2023-04-09T04:18:27.256Z,27.92
2023-04-09T04:20:56.926Z,26.90
2023-04-09T04:23:26.463Z,29.23
2023-04-09T04:26:09.989Z,25.88
2023-04-09T04:28:39.958Z,27.23
2023-04-09T04:31:11.882Z,28.10
2023-04-09T04:33:44.799Z,25.02
2023-04-09T04:36:16.757Z,32.28
2023-04-09T04:38:52.889Z,30.55
2023-04-09T04:41:30.461Z,29.75
2023-04-09T04:44:10.596Z,30.30
2023-04-09T04:46:39.928Z,28.35
2023-04-09T04:49:11.105Z,26.98
2023-04-09T04:51:47.441Z,31.30
2023-04-09T04:54:18.238Z,23.60
2023-04-09T04:56:57.489Z,23.60
2023-04-09T04:59:42.270Z,23.90
2023-04-09T05:02:13.623Z,33.03
2023-04-09T05:04:55.004Z,23.67
2023-04-09T05:07:32.417Z,19.38
2023-04-09T05:10:01.770Z,19.45
2023-04-09T05:12:37.384Z,18.45
2023-04-09T05:15:08.218Z,17.23
2023-04-09T05:17:39.441Z,19.17
2023-04-09T05:20:12.457Z,16.88
2023-04-09T05:22:51.358Z,17.27
2023-04-09T05:25:23.858Z,18.95
2023-04-09T05:27:54.217Z,20.15
2023-04-09T05:30:23.795Z,17.98
2023-04-09T05:32:53.629Z,17.30
2023-04-09T05:35:25.337Z,18.50
2023-04-09T05:37:54.886Z,17.23
2023-04-09T05:40:27.624Z,16.98
2023-04-09T05:42:57.183Z,18.48
2023-04-09T05:45:39.936Z,13.90
2023-04-09T05:48:10.458Z,14.13
2023-04-09T05:50:54.112Z,21.40
2023-04-09T05:53:26.170Z,18.05
2023-04-09T05:55:55.523Z,18.08
2023-04-09T05:58:30.644Z,16.55
2023-04-09T06:01:01.015Z,17.40
2023-04-09T06:03:30.227Z,17.02
2023-04-09T06:06:01.248Z,18.73
2023-04-09T06:08:30.695Z,18.02
2023-04-09T06:11:00.081Z,17.58
2023-04-09T06:13:29.377Z,16.88
2023-04-09T06:15:58.942Z,19.48
2023-04-09T06:18:28.245Z,18.60
2023-04-09T06:21:04.747Z,19.65
2023-04-09T06:23:34.164Z,20.77
2023-04-09T06:26:04.102Z,19.55
2023-04-09T06:28:33.564Z,21.45
2023-04-09T06:31:02.768Z,25.80
2023-04-09T06:33:31.982Z,23.67
2023-04-09T06:36:01.576Z,21.70
2023-04-09T06:38:32.527Z,23.77
2023-04-09T06:41:01.504Z,22.38
2023-04-09T06:43:30.838Z,21.13
2023-04-09T06:46:00.945Z,25.98
2023-04-09T06:48:31.302Z,24.17
2023-04-09T06:51:00.965Z,24.73
2023-04-09T06:53:30.819Z,22.90
2023-04-09T06:56:01.307Z,23.58
2023-04-09T06:58:30.484Z,23.95
2023-04-09T07:01:00.063Z,25.08
2023-04-09T07:03:29.518Z,24.40
2023-04-09T07:05:59.057Z,26.10
2023-04-09T07:08:29.746Z,22.48
2023-04-09T07:11:00.105Z,22.05
2023-04-09T07:13:31.319Z,20.10
2023-04-09T07:16:01.304Z,21.80
2023-04-09T07:18:30.424Z,18.58
2023-04-09T07:20:59.535Z,17.27
2023-04-09T07:23:28.624Z,20.83
2023-04-09T07:25:57.940Z,16.98
2023-04-09T07:28:27.182Z,17.20
2023-04-09T07:30:57.679Z,17.13
2023-04-09T07:33:26.851Z,17.45
2023-04-09T07:35:56.347Z,19.33
2023-04-09T07:38:25.828Z,15.57
2023-04-09T07:40:54.988Z,18.45
2023-04-09T07:43:24.219Z,17.10
2023-04-09T07:45:53.311Z,15.52
2023-04-09T07:48:23.837Z,18.98
2023-04-09T07:50:53.075Z,16.15
2023-04-09T07:53:22.358Z,18.02
2023-04-09T07:55:55.224Z,24.02
2023-04-09T07:58:24.398Z,18.08
2023-04-09T08:00:53.441Z,17.10
2023-04-09T08:03:25.381Z,20.38
2023-04-09T08:05:54.499Z,18.73
2023-04-09T08:08:23.465Z,19.48
2023-04-09T08:10:52.734Z,19.25
2023-04-09T08:13:21.948Z,20.17
2023-04-09T08:15:50.950Z,18.30
2023-04-09T08:18:20.052Z,20.50
2023-04-09T08:20:50.577Z,19.73
2023-04-09T08:23:19.818Z,19.70
2023-04-09T08:25:51.295Z,21.33
2023-04-09T08:28:20.772Z,21.60
2023-04-09T08:30:52.150Z,20.15
2023-04-09T08:33:21.719Z,23.88
2023-04-09T08:36:03.584Z,22.02
2023-04-09T08:38:34.837Z,24.65
2023-04-09T08:41:04.791Z,26.23
2023-04-09T08:43:56.062Z,24.40
2023-04-09T08:46:24.941Z,24.20
2023-04-09T08:48:54.736Z,22.63
2023-04-09T08:51:25.720Z,25.50
2023-04-09T08:54:04.488Z,25.45
2023-04-09T08:56:40.464Z,25.40
2023-04-09T08:59:09.743Z,25.73
2023-04-09T09:01:39.201Z,26.40
2023-04-09T09:04:09.510Z,25.05
2023-04-09T09:06:39.466Z,25.35
2023-04-09T09:09:11.209Z,25.25
2023-04-09T09:11:41.282Z,23.55
2023-04-09T09:14:11.340Z,22.15
2023-04-09T09:16:43.258Z,22.00
2023-04-09T09:21:41.915Z,20.33
2023-04-09T09:24:19.601Z,21.35
2023-04-09T09:26:48.864Z,20.70
2023-04-09T09:29:18.138Z,18.27
2023-04-09T09:31:51.171Z,20.52
2023-04-09T09:34:20.893Z,18.70
2023-04-09T09:36:50.360Z,19.98
2023-04-09T09:39:22.411Z,18.52
2023-04-09T09:42:08.554Z,19.30
2023-04-09T09:44:37.976Z,20.88
2023-04-09T09:47:07.737Z,19.20
2023-04-09T09:49:36.969Z,18.05
2023-04-09T09:52:10.893Z,19.13
2023-04-09T09:54:43.448Z,19.48
2023-04-09T09:57:13.728Z,18.65
2023-04-09T09:59:43.605Z,18.15
2023-04-09T10:02:17.609Z,18.88
2023-04-09T10:04:47.239Z,17.83
2023-04-09T10:07:16.726Z,19.30
2023-04-09T10:09:49.646Z,17.23
2023-04-09T10:12:19.257Z,18.30
2023-04-09T10:14:50.098Z,17.73
2023-04-09T10:17:19.259Z,16.67
2023-04-09T10:19:51.419Z,17.98
2023-04-09T10:22:23.171Z,15.65
2023-04-09T10:24:58.097Z,15.55
2023-04-09T10:27:28.467Z,16.65
2023-04-09T10:29:57.953Z,14.25
2023-04-09T10:32:28.484Z,13.48
2023-04-09T10:34:59.540Z,14.57
2023-04-09T10:37:30.008Z,13.98
2023-04-09T10:40:05.282Z,15.25
2023-04-09T10:42:43.147Z,14.23
2023-04-09T10:45:13.018Z,13.57
2023-04-09T10:47:44.287Z,13.00
2023-04-09T10:50:17.955Z,13.68
2023-04-09T10:52:48.449Z,16.73
2023-04-09T10:55:39.885Z,14.68
2023-04-09T10:58:12.327Z,15.52
2023-04-09T11:00:46.301Z,15.13
2023-04-09T11:03:22.848Z,16.52
2023-04-09T11:06:03.326Z,17.63
2023-04-09T11:08:33.575Z,17.60
2023-04-09T11:11:04.350Z,14.90
2023-04-09T11:13:34.636Z,14.82
2023-04-09T11:16:07.000Z,15.38
2023-04-09T11:18:37.247Z,14.40
2023-04-09T11:21:06.884Z,13.73
2023-04-09T11:23:39.940Z,14.20
2023-04-09T11:26:14.331Z,15.27
2023-04-09T11:28:59.321Z,16.92
2023-04-09T11:31:30.575Z,14.43
2023-04-09T11:33:59.761Z,15.73
2023-04-09T11:36:29.138Z,14.07
2023-04-09T11:38:59.196Z,14.55
2023-04-09T11:41:36.846Z,14.82
2023-04-09T11:44:06.106Z,15.05
2023-04-09T11:46:35.690Z,15.50
2023-04-09T11:49:08.274Z,16.50
2023-04-09T11:51:38.784Z,16.15
2023-04-09T11:54:08.289Z,16.00
2023-04-09T11:56:39.662Z,15.55
2023-04-09T11:59:08.768Z,16.42
2023-04-09T12:01:38.084Z,13.63
2023-04-09T12:04:08.074Z,14.23
2023-04-09T12:06:42.833Z,14.10
2023-04-09T12:09:14.354Z,14.35
2023-04-09T12:11:46.625Z,15.38
2023-04-09T12:14:17.370Z,15.18
2023-04-09T12:16:47.610Z,14.40
2023-04-09T12:19:16.970Z,14.13
2023-04-09T12:21:50.106Z,14.93
2023-04-09T12:24:21.710Z,18.02
2023-04-09T12:26:52.493Z,14.32
2023-04-09T12:29:22.224Z,16.20
2023-04-09T12:31:51.260Z,15.85
2023-04-09T12:34:22.854Z,14.52
2023-04-09T12:36:52.429Z,19.77
2023-04-09T12:39:21.894Z,14.02
2023-04-09T12:41:54.517Z,15.48
2023-04-09T12:44:27.775Z,17.27
2023-04-09T12:46:57.325Z,14.98
2023-04-09T12:49:27.689Z,16.10
2023-04-09T12:51:56.918Z,15.18
2023-04-09T12:54:26.509Z,18.13
2023-04-09T12:56:57.310Z,17.20
2023-04-09T12:59:26.636Z,16.70
2023-04-09T13:01:58.392Z,16.45
2023-04-09T13:04:28.089Z,16.00
2023-04-09T13:07:00.968Z,13.85
2023-04-09T13:09:30.443Z,15.65
2023-04-09T13:12:02.530Z,15.77
2023-04-09T13:14:32.503Z,15.90
2023-04-09T13:17:02.063Z,15.77
2023-04-09T13:19:31.634Z,13.27
2023-04-09T13:22:01.168Z,14.85
2023-04-09T13:24:44.510Z,13.90
2023-04-09T13:27:16.569Z,14.75
2023-04-09T13:29:51.280Z,20.65
2023-04-09T13:32:24.640Z,15.02
2023-04-09T13:34:55.517Z,15.27
2023-04-09T13:37:27.342Z,16.40
2023-04-09T13:39:56.546Z,17.10
2023-04-09T13:42:29.648Z,14.60
2023-04-09T13:44:59.021Z,11.57
2023-04-09T13:47:30.688Z,10.85
2023-04-09T13:50:00.015Z,9.85
2023-04-09T13:52:29.734Z,11.43
2023-04-09T13:54:59.284Z,11.90
2023-04-09T13:57:29.923Z,10.13
2023-04-09T14:00:06.007Z,12.27
2023-04-09T14:02:35.533Z,11.65
2023-04-09T14:05:04.759Z,10.32
2023-04-09T14:07:34.292Z,9.00
2023-04-09T14:10:03.633Z,9.27
2023-04-09T14:12:34.351Z,11.35
2023-04-09T14:15:03.979Z,9.70
2023-04-09T14:17:33.090Z,11.10
2023-04-09T14:20:03.873Z,9.82
2023-04-09T14:22:43.124Z,9.65
2023-04-09T14:27:49.106Z,8.18
2023-04-09T14:30:19.680Z,9.32
2023-04-09T14:32:49.092Z,8.77
2023-04-09T14:35:22.757Z,9.00
2023-04-09T14:37:57.789Z,8.95
2023-04-09T14:40:27.505Z,9.57
2023-04-09T14:43:01.541Z,9.10
2023-04-09T14:45:31.522Z,8.90
2023-04-09T14:48:01.137Z,9.13
2023-04-09T14:50:33.991Z,9.93
2023-04-09T14:53:03.544Z,9.23
2023-04-09T14:55:33.427Z,8.77
2023-04-09T14:58:07.197Z,8.05
2023-04-09T15:00:37.244Z,9.23
2023-04-09T15:03:09.348Z,7.80
2023-04-09T15:05:38.858Z,7.80
2023-04-09T15:08:08.289Z,8.02
2023-04-09T15:10:39.210Z,10.20
2023-04-09T15:13:13.191Z,7.97
2023-04-09T15:15:45.125Z,9.48
2023-04-09T15:18:14.329Z,9.10
2023-04-09T15:20:45.893Z,11.00
2023-04-09T15:23:15.272Z,8.80
2023-04-09T15:25:44.879Z,9.77
2023-04-09T15:28:16.261Z,8.80
2023-04-09T15:30:46.488Z,8.53
2023-04-09T15:33:15.728Z,8.00
2023-04-09T15:35:44.818Z,8.65
2023-04-09T15:38:17.340Z,7.80
2023-04-09T15:40:46.914Z,8.93
2023-04-09T15:43:17.387Z,9.10
2023-04-09T15:45:48.726Z,9.63
2023-04-09T15:48:19.717Z,5.78
2023-04-09T15:50:49.024Z,8.90
2023-04-09T15:53:19.649Z,7.70
2023-04-09T15:55:49.415Z,9.70
2023-04-09T15:58:25.660Z,9.27
2023-04-09T16:00:55.033Z,11.02
2023-04-09T16:03:28.394Z,10.90
2023-04-09T16:06:02.081Z,9.73
2023-04-09T16:08:31.619Z,11.07
2023-04-09T16:11:01.130Z,11.73
2023-04-09T16:13:31.872Z,11.82
2023-04-09T16:16:03.718Z,12.25
2023-04-09T16:21:01.922Z,13.48
2023-04-09T16:23:34.191Z,12.65
2023-04-09T16:26:04.062Z,14.10
2023-04-09T16:28:34.745Z,15.30
2023-04-09T16:31:04.033Z,13.38
2023-04-09T16:33:36.888Z,13.85
2023-04-09T16:36:07.339Z,13.30
2023-04-09T16:38:36.621Z,13.30
2023-04-09T16:41:05.754Z,13.90
2023-04-09T16:43:36.597Z,20.02
2023-04-09T16:46:07.342Z,14.60
2023-04-09T16:48:41.755Z,16.60
2023-04-09T16:51:11.292Z,29.60
2023-04-09T16:53:41.256Z,12.93
2023-04-09T16:56:10.821Z,12.50
2023-04-09T16:58:41.628Z,12.25
2023-04-09T17:01:10.879Z,12.27
2023-04-09T17:03:40.245Z,8.70
2023-04-09T17:06:09.513Z,10.27
2023-04-09T17:08:39.885Z,9.93
2023-04-09T17:11:09.308Z,7.60
2023-04-09T17:13:38.726Z,9.27
2023-04-09T17:16:11.697Z,8.70
2023-04-09T17:18:40.961Z,7.30
2023-04-09T17:21:12.515Z,7.90
2023-04-09T17:23:42.675Z,9.00
2023-04-09T17:26:14.188Z,8.35
2023-04-09T17:28:43.705Z,7.43
2023-04-09T17:31:16.279Z,8.10
2023-04-09T17:33:48.135Z,7.47
2023-04-09T17:36:19.798Z,9.48
2023-04-09T17:38:52.480Z,8.02
2023-04-09T17:41:22.698Z,9.45
2023-04-09T17:43:52.256Z,8.48
2023-04-09T17:46:24.116Z,8.05
2023-04-09T17:48:56.648Z,8.32
2023-04-09T17:51:27.144Z,8.25
2023-04-09T17:53:56.720Z,8.55
2023-04-09T17:56:25.770Z,8.93
2023-04-09T17:58:55.060Z,8.07
2023-04-09T18:01:25.912Z,11.07
2023-04-09T18:03:59.100Z,11.00
2023-04-09T18:06:29.258Z,12.40
2023-04-09T18:08:58.467Z,10.65
2023-04-09T18:11:28.115Z,13.80
2023-04-09T18:13:57.126Z,16.95
2023-04-09T18:16:30.610Z,16.15
2023-04-09T18:18:59.812Z,13.75
2023-04-09T18:21:29.345Z,13.48
2023-04-09T18:23:58.895Z,14.05
2023-04-09T18:26:28.084Z,14.00
2023-04-09T18:29:00.915Z,12.80
2023-04-09T18:31:32.057Z,17.58
2023-04-09T18:34:01.647Z,13.13
2023-04-09T18:36:31.092Z,14.95
2023-04-09T18:39:00.158Z,14.05
2023-04-09T18:41:30.952Z,14.52
2023-04-09T18:44:00.210Z,13.63
2023-04-09T18:46:30.340Z,15.30
2023-04-09T18:49:10.376Z,12.85
2023-04-09T18:51:40.663Z,14.27
2023-04-09T18:54:10.105Z,12.32
2023-04-09T18:56:40.317Z,14.13
2023-04-09T18:59:09.639Z,13.18
2023-04-09T19:01:48.098Z,15.50
2023-04-09T19:04:37.343Z,37.13
2023-04-09T19:07:17.288Z,30.25
2023-04-09T19:09:46.793Z,25.05
2023-04-09T19:12:16.239Z,24.58
2023-04-09T19:14:45.873Z,16.73
2023-04-09T19:17:17.577Z,14.75
2023-04-09T19:19:57.471Z,11.98
2023-04-09T19:22:30.858Z,14.05
2023-04-09T19:25:00.469Z,13.55
2023-04-09T19:27:33.112Z,12.65
2023-04-09T19:30:02.316Z,13.55
2023-04-09T19:32:33.921Z,12.48
2023-04-09T19:35:05.049Z,12.70
2023-04-09T19:37:34.861Z,28.20
2023-04-09T19:40:04.702Z,14.63
2023-04-09T19:42:36.852Z,15.88
2023-04-09T19:45:06.771Z,14.70
2023-04-09T19:47:37.445Z,15.25
2023-04-09T19:50:08.514Z,13.82
2023-04-09T19:52:38.920Z,13.73
2023-04-09T19:55:09.158Z,14.02
2023-04-09T19:57:39.069Z,14.85
2023-04-09T20:00:08.835Z,13.10
2023-04-09T20:05:12.924Z,13.88
2023-04-09T20:07:43.432Z,12.30
2023-04-09T20:10:12.713Z,12.43
2023-04-09T20:12:44.891Z,12.35
2023-04-09T20:15:23.130Z,11.65
2023-04-09T20:17:59.393Z,11.45
2023-04-09T20:20:32.478Z,12.38
2023-04-09T20:23:01.911Z,13.60
2023-04-09T20:25:34.932Z,13.13
2023-04-09T20:28:09.913Z,12.18
2023-04-09T20:30:41.442Z,11.60
2023-04-09T20:33:11.780Z,13.40
2023-04-09T20:35:42.444Z,10.88
2023-04-09T20:38:11.664Z,11.55
2023-04-09T20:40:40.892Z,11.20
2023-04-09T20:43:10.036Z,13.18
2023-04-09T20:45:39.477Z,13.13
2023-04-09T20:48:08.755Z,11.25
2023-04-09T20:50:38.400Z,11.43
2023-04-09T20:53:18.163Z,11.30
2023-04-09T20:55:47.721Z,10.95
2023-04-09T20:58:17.044Z,10.88
2023-04-09T21:00:46.631Z,12.30
2023-04-09T21:03:18.749Z,10.25
2023-04-09T21:05:51.001Z,12.05
2023-04-09T21:08:24.257Z,11.40
2023-04-09T21:10:54.000Z,11.50
2023-04-09T21:13:23.299Z,11.88
2023-04-09T21:15:52.602Z,12.00
2023-04-09T21:18:22.454Z,11.50
2023-04-09T21:20:51.834Z,11.38
2023-04-09T21:23:21.018Z,11.18
2023-04-09T21:25:51.500Z,11.77
2023-04-09T21:28:27.740Z,10.80
2023-04-09T21:30:57.869Z,12.77
2023-04-09T21:33:28.628Z,12.57
2023-04-09T21:35:59.325Z,12.02
2023-04-09T21:38:28.948Z,12.45
2023-04-09T21:41:00.335Z,14.18
2023-04-09T21:43:30.458Z,11.82
2023-04-09T21:45:59.871Z,11.98
2023-04-09T21:48:30.754Z,12.70
2023-04-09T21:51:00.318Z,11.88
2023-04-09T21:53:29.472Z,11.40
2023-04-09T21:55:59.973Z,12.35
2023-04-09T21:58:29.353Z,12.70
2023-04-09T22:00:58.665Z,11.90
2023-04-09T22:03:31.366Z,12.75
2023-04-09T22:06:00.719Z,10.88
2023-04-09T22:08:34.091Z,12.60
2023-04-09T22:11:07.875Z,10.02
2023-04-09T22:13:36.857Z,10.10
2023-04-09T22:16:06.906Z,10.40
2023-04-09T22:18:36.978Z,11.80
2023-04-09T22:21:06.514Z,12.00
2023-04-09T22:23:35.907Z,11.73
2023-04-09T22:26:05.242Z,10.70
2023-04-09T22:28:35.968Z,9.77
2023-04-09T22:31:05.321Z,10.43
2023-04-09T22:33:34.451Z,11.13
2023-04-09T22:36:04.019Z,10.18
2023-04-09T22:38:33.170Z,11.07
2023-04-09T22:41:02.551Z,10.48
2023-04-09T22:43:31.684Z,10.00
2023-04-09T22:46:02.227Z,11.52
2023-04-09T22:48:44.879Z,10.63
2023-04-09T22:51:24.852Z,11.57
2023-04-09T22:53:54.024Z,13.57
2023-04-09T22:56:23.502Z,11.43
2023-04-09T22:58:52.904Z,9.73
2023-04-09T23:01:23.647Z,12.00
2023-04-09T23:03:52.658Z,12.25
2023-04-09T23:06:22.467Z,9.80
2023-04-09T23:08:52.402Z,13.98
2023-04-09T23:11:22.084Z,11.80
2023-04-09T23:13:51.418Z,11.32
2023-04-09T23:16:20.800Z,11.18
2023-04-09T23:18:52.212Z,14.27
2023-04-09T23:21:21.570Z,13.30
2023-04-09T23:23:50.713Z,12.98
2023-04-09T23:26:20.169Z,13.45
2023-04-09T23:28:49.717Z,14.88
2023-04-09T23:31:18.970Z,13.85
2023-04-09T23:33:48.358Z,13.43
2023-04-09T23:36:20.907Z,11.27
2023-04-09T23:38:53.539Z,13.35
2023-04-09T23:41:26.418Z,12.27
2023-04-09T23:43:56.485Z,11.73
2023-04-09T23:46:26.678Z,14.43
2023-04-09T23:48:55.727Z,13.57
2023-04-09T23:51:29.525Z,14.23
2023-04-09T23:54:02.893Z,12.75
2023-04-09T23:56:32.189Z,13.57
2023-04-09T23:59:01.357Z,12.63
